createdAt,value
2023-01-17T00:00:37.581Z,8.40
2023-01-17T00:03:04.750Z,7.95
2023-01-17T00:05:50.897Z,7.72
2023-01-17T00:08:36.734Z,7.55
2023-01-17T00:11:03.949Z,7.68
2023-01-17T00:13:31.098Z,7.85
2023-01-17T00:15:58.352Z,7.80
2023-01-17T00:18:25.534Z,7.78
2023-01-17T00:21:11.322Z,7.22
2023-01-17T00:23:57.301Z,8.23
2023-01-17T00:26:24.472Z,8.02
2023-01-17T00:28:51.605Z,7.90
2023-01-17T00:31:18.984Z,6.93
2023-01-17T00:33:46.171Z,7.35
2023-01-17T00:36:13.313Z,7.72
2023-01-17T00:38:41.079Z,7.10
2023-01-17T00:41:09.443Z,8.15
2023-01-17T00:43:56.079Z,7.75
2023-01-17T00:46:42.343Z,6.60
2023-01-17T00:52:14.728Z,6.80
2023-01-17T00:55:00.855Z,6.53
2023-01-17T00:57:49.746Z,7.35
2023-01-17T01:00:38.264Z,7.13
2023-01-17T01:03:30.471Z,7.00
2023-01-17T01:06:16.621Z,7.18
2023-01-17T01:09:02.466Z,6.50
2023-01-17T01:11:48.512Z,7.07
2023-01-17T01:14:34.444Z,6.80
2023-01-17T01:17:20.572Z,6.35
2023-01-17T01:20:06.513Z,6.63
2023-01-17T01:22:52.532Z,5.55
2023-01-17T01:25:38.588Z,6.72
2023-01-17T01:28:31.244Z,6.35
2023-01-17T01:31:20.312Z,6.00
2023-01-17T01:33:47.612Z,6.25
2023-01-17T01:36:14.783Z,6.25
2023-01-17T01:38:41.957Z,6.53
2023-01-17T01:41:09.132Z,5.82
2023-01-17T01:43:52.687Z,5.68
2023-01-17T01:46:19.826Z,5.95
2023-01-17T01:48:53.486Z,6.30
2023-01-17T01:51:23.047Z,5.93
2023-01-17T01:53:53.471Z,5.63
2023-01-17T01:56:23.238Z,6.15
2023-01-17T01:58:51.565Z,6.32
2023-01-17T02:01:19.072Z,5.60
2023-01-17T02:03:46.934Z,5.47
2023-01-17T02:06:29.373Z,6.03
2023-01-17T02:08:58.952Z,5.68
2023-01-17T02:11:26.276Z,5.38
2023-01-17T02:13:53.497Z,5.55
2023-01-17T02:16:26.710Z,5.20
2023-01-17T02:19:02.888Z,5.38
2023-01-17T02:21:35.479Z,5.32
2023-01-17T02:24:25.576Z,5.20
2023-01-17T02:27:07.780Z,5.68
2023-01-17T02:30:03.917Z,5.55
2023-01-17T02:32:39.037Z,5.95
2023-01-17T02:35:15.646Z,4.90
2023-01-17T02:37:53.664Z,5.75
2023-01-17T02:40:24.210Z,4.93
2023-01-17T02:42:54.952Z,5.35
2023-01-17T02:45:22.178Z,5.30
2023-01-17T02:47:49.428Z,5.05
2023-01-17T02:50:18.595Z,5.13
2023-01-17T02:52:55.037Z,5.07
2023-01-17T02:55:40.742Z,5.00
2023-01-17T02:58:27.215Z,5.38
2023-01-17T03:01:16.216Z,4.88
2023-01-17T03:03:43.444Z,5.22
2023-01-17T03:06:14.221Z,4.63
2023-01-17T03:08:42.892Z,4.85
2023-01-17T03:11:10.793Z,4.57
2023-01-17T03:13:38.198Z,4.90
2023-01-17T03:16:07.407Z,4.65
2023-01-17T03:18:34.855Z,4.50
2023-01-17T03:21:02.033Z,4.43
2023-01-17T03:23:29.177Z,5.07
2023-01-17T03:25:56.351Z,5.07
2023-01-17T03:28:23.475Z,4.90
2023-01-17T03:30:50.703Z,4.68
2023-01-17T03:33:18.494Z,4.85
2023-01-17T03:35:46.337Z,4.53
2023-01-17T03:38:13.510Z,4.65
2023-01-17T03:40:40.749Z,5.10
2023-01-17T03:43:08.100Z,4.38
2023-01-17T03:45:35.380Z,4.80
2023-01-17T03:48:02.514Z,4.35
2023-01-17T03:50:29.793Z,4.32
2023-01-17T03:52:57.286Z,4.65
2023-01-17T03:55:24.468Z,4.60
2023-01-17T03:57:51.730Z,4.30
2023-01-17T04:00:19.095Z,4.15
2023-01-17T04:02:46.254Z,4.30
2023-01-17T04:05:13.391Z,4.13
2023-01-17T04:07:41.095Z,4.25
2023-01-17T04:10:08.465Z,4.80
2023-01-17T04:12:35.591Z,4.72
2023-01-17T04:15:02.759Z,4.38
2023-01-17T04:17:31.143Z,4.28
2023-01-17T04:19:58.267Z,4.80
2023-01-17T04:22:25.465Z,4.32
2023-01-17T04:24:52.618Z,4.45
2023-01-17T04:27:22.790Z,3.85
2023-01-17T04:29:50.057Z,4.38
2023-01-17T04:32:17.208Z,3.63
2023-01-17T04:34:44.408Z,4.88
2023-01-17T04:37:11.581Z,4.03
2023-01-17T04:39:38.728Z,4.18
2023-01-17T04:42:05.867Z,4.15
2023-01-17T04:44:33.038Z,3.50
2023-01-17T04:47:01.969Z,3.95
2023-01-17T04:49:29.097Z,3.78
2023-01-17T04:51:56.215Z,3.80
2023-01-17T04:54:23.345Z,4.05
2023-01-17T04:56:50.514Z,3.60
2023-01-17T04:59:17.793Z,3.75
2023-01-17T05:01:45.080Z,3.63
2023-01-17T05:04:12.338Z,3.75
2023-01-17T05:06:39.484Z,4.20
2023-01-17T05:09:06.872Z,3.60
2023-01-17T05:11:34.124Z,3.40
2023-01-17T05:14:01.255Z,3.92
2023-01-17T05:16:28.425Z,3.80
2023-01-17T05:18:55.810Z,3.60
2023-01-17T05:21:23.259Z,3.60
2023-01-17T05:23:50.850Z,3.55
2023-01-17T05:26:17.991Z,3.88
2023-01-17T05:28:45.165Z,3.95
2023-01-17T05:31:12.370Z,4.00
2023-01-17T05:33:39.545Z,3.50
2023-01-17T05:36:06.897Z,3.55
2023-01-17T05:38:34.058Z,4.07
2023-01-17T05:41:01.800Z,4.05
2023-01-17T05:43:29.276Z,3.75
2023-01-17T05:45:56.515Z,4.22
2023-01-17T05:48:23.728Z,3.78
2023-01-17T05:50:52.161Z,3.58
2023-01-17T05:53:19.354Z,3.50
2023-01-17T05:55:47.691Z,3.40
2023-01-17T05:58:16.509Z,3.30
2023-01-17T06:00:43.853Z,3.85
2023-01-17T06:03:11.611Z,3.75
2023-01-17T06:05:38.903Z,4.75
2023-01-17T06:08:06.343Z,4.15
2023-01-17T06:10:33.701Z,3.95
2023-01-17T06:13:02.200Z,3.40
2023-01-17T06:15:29.743Z,4.28
2023-01-17T06:17:56.971Z,4.65
2023-01-17T06:20:24.508Z,4.88
2023-01-17T06:22:51.736Z,6.30
2023-01-17T06:25:18.857Z,4.40
2023-01-17T06:27:46.059Z,4.32
2023-01-17T06:30:13.416Z,4.35
2023-01-17T06:32:40.613Z,4.78
2023-01-17T06:35:07.847Z,5.18
2023-01-17T06:37:35.055Z,5.18
2023-01-17T06:40:02.326Z,5.28
2023-01-17T06:42:29.504Z,5.40
2023-01-17T06:44:56.693Z,5.03
2023-01-17T06:47:23.967Z,4.90
2023-01-17T06:49:51.129Z,5.38
2023-01-17T06:52:18.240Z,5.30
2023-01-17T06:54:45.430Z,5.43
2023-01-17T06:57:12.620Z,5.10
2023-01-17T06:59:40.197Z,6.05
2023-01-17T07:02:07.392Z,5.60
2023-01-17T07:04:35.191Z,13.73
2023-01-17T07:07:02.509Z,23.27
2023-01-17T07:09:29.673Z,22.13
2023-01-17T07:12:02.012Z,20.88
2023-01-17T07:14:29.537Z,21.98
2023-01-17T07:16:57.336Z,21.60
2023-01-17T07:19:25.009Z,19.33
2023-01-17T07:21:55.566Z,19.15
2023-01-17T07:24:22.737Z,18.55
2023-01-17T07:26:50.226Z,16.25
2023-01-17T07:29:17.533Z,16.27
2023-01-17T07:31:44.790Z,19.63
2023-01-17T07:34:12.261Z,22.10
2023-01-17T07:36:39.448Z,23.25
2023-01-17T07:39:06.651Z,22.15
2023-01-17T07:41:41.011Z,20.75
2023-01-17T07:44:08.842Z,19.33
2023-01-17T07:46:36.100Z,17.55
2023-01-17T07:49:03.362Z,15.15
2023-01-17T07:51:30.586Z,15.90
2023-01-17T07:53:57.710Z,15.23
2023-01-17T07:56:25.000Z,14.57
2023-01-17T07:58:52.213Z,13.73
2023-01-17T08:01:19.496Z,13.65
2023-01-17T08:03:46.783Z,13.82
2023-01-17T08:06:21.011Z,14.38
2023-01-17T08:08:48.895Z,13.93
2023-01-17T08:11:16.305Z,13.68
2023-01-17T08:13:43.439Z,13.65
2023-01-17T08:16:11.628Z,13.45
2023-01-17T08:18:39.034Z,13.55
2023-01-17T08:21:12.129Z,12.43
2023-01-17T08:23:39.255Z,11.95
2023-01-17T08:26:06.432Z,12.90
2023-01-17T08:28:34.418Z,12.48
2023-01-17T08:31:11.253Z,11.65
2023-01-17T08:33:38.423Z,11.57
2023-01-17T08:36:05.782Z,11.45
2023-01-17T08:38:32.909Z,10.50
2023-01-17T08:41:03.162Z,10.55
2023-01-17T08:43:30.303Z,11.48
2023-01-17T08:45:57.512Z,11.05
2023-01-17T08:48:24.953Z,11.13
2023-01-17T08:50:52.552Z,10.55
2023-01-17T08:53:21.672Z,9.93
2023-01-17T08:55:48.893Z,11.02
2023-01-17T08:58:16.138Z,13.00
2023-01-17T09:00:43.309Z,15.88
2023-01-17T09:03:14.489Z,14.60
2023-01-17T09:05:41.751Z,14.07
2023-01-17T09:08:08.977Z,15.07
2023-01-17T09:10:36.123Z,13.48
2023-01-17T09:13:03.422Z,14.13
2023-01-17T09:15:30.538Z,13.55
2023-01-17T09:17:57.987Z,13.30
2023-01-17T09:20:25.644Z,13.27
2023-01-17T09:22:52.909Z,14.15
2023-01-17T09:25:20.202Z,12.23
2023-01-17T09:27:47.884Z,12.85
2023-01-17T09:30:15.224Z,12.60
2023-01-17T09:32:42.427Z,12.65
2023-01-17T09:35:10.048Z,12.85
2023-01-17T09:37:37.762Z,12.13
2023-01-17T09:40:05.584Z,13.50
2023-01-17T09:42:38.198Z,12.25
2023-01-17T09:45:05.976Z,12.43
2023-01-17T09:47:36.541Z,13.32
2023-01-17T09:50:22.323Z,14.13
2023-01-17T09:52:49.556Z,14.73
2023-01-17T09:55:17.555Z,13.38
2023-01-17T09:57:57.596Z,13.38
2023-01-17T10:00:27.863Z,14.18
2023-01-17T10:03:01.267Z,13.63
2023-01-17T10:05:47.201Z,13.63
2023-01-17T10:08:31.448Z,12.70
2023-01-17T10:10:58.631Z,13.30
2023-01-17T10:13:39.760Z,14.13
2023-01-17T10:16:15.883Z,12.18
2023-01-17T10:18:43.050Z,13.35
2023-01-17T10:21:29.200Z,13.25
2023-01-17T10:23:56.361Z,13.88
2023-01-17T10:26:25.144Z,12.43
2023-01-17T10:28:54.259Z,12.82
2023-01-17T10:31:21.426Z,12.77
2023-01-17T10:33:48.532Z,13.52
2023-01-17T10:36:20.515Z,15.60
2023-01-17T10:38:53.166Z,16.05
2023-01-17T10:41:30.746Z,14.98
2023-01-17T10:44:02.233Z,14.50
2023-01-17T10:46:40.679Z,16.45
2023-01-17T10:49:15.361Z,16.13
2023-01-17T10:52:01.297Z,15.23
2023-01-17T10:54:38.230Z,15.30
2023-01-17T10:57:05.459Z,14.60
2023-01-17T10:59:33.708Z,15.68
2023-01-17T11:02:06.734Z,15.13
2023-01-17T11:04:38.409Z,14.80
2023-01-17T11:07:12.194Z,13.50
2023-01-17T11:09:41.023Z,13.05
2023-01-17T11:12:16.597Z,13.00
2023-01-17T11:14:49.434Z,12.48
2023-01-17T11:17:19.892Z,11.75
2023-01-17T11:19:51.247Z,12.23
2023-01-17T11:22:18.670Z,12.30
2023-01-17T11:24:56.399Z,10.77
2023-01-17T11:27:24.815Z,13.88
2023-01-17T11:30:03.163Z,13.75
2023-01-17T11:32:32.149Z,13.65
2023-01-17T11:35:05.505Z,15.00
2023-01-17T11:37:32.681Z,15.18
2023-01-17T11:40:18.508Z,14.88
2023-01-17T11:42:45.644Z,12.90
2023-01-17T11:45:26.467Z,12.82
2023-01-17T11:48:08.881Z,14.02
2023-01-17T11:50:37.589Z,13.43
2023-01-17T11:53:25.560Z,12.93
2023-01-17T11:55:53.843Z,12.38
2023-01-17T11:58:21.836Z,12.30
2023-01-17T12:00:52.963Z,11.82
2023-01-17T12:03:36.729Z,12.13
2023-01-17T12:06:25.085Z,11.25
2023-01-17T12:09:09.648Z,10.68
2023-01-17T12:11:37.128Z,11.90
2023-01-17T12:14:15.236Z,12.23
2023-01-17T12:17:01.318Z,10.98
2023-01-17T12:19:34.274Z,11.00
2023-01-17T12:22:04.346Z,10.27
2023-01-17T12:24:50.034Z,11.40
2023-01-17T12:27:22.897Z,10.25
2023-01-17T12:29:52.628Z,10.05
2023-01-17T12:32:40.070Z,10.10
2023-01-17T12:35:16.128Z,10.48
2023-01-17T12:37:57.364Z,11.05
2023-01-17T12:40:35.965Z,10.07
2023-01-17T12:43:15.441Z,8.93
2023-01-17T12:45:46.194Z,9.82
2023-01-17T12:48:16.575Z,9.93
2023-01-17T12:50:55.109Z,9.25
2023-01-17T12:53:32.699Z,10.38
2023-01-17T12:55:59.867Z,8.93
2023-01-17T12:58:31.154Z,8.90
2023-01-17T13:01:07.501Z,9.10
2023-01-17T13:03:46.722Z,8.85
2023-01-17T13:06:23.212Z,8.52
2023-01-17T13:08:51.179Z,9.15
2023-01-17T13:11:28.668Z,8.45
2023-01-17T13:13:57.411Z,9.07
2023-01-17T13:16:27.391Z,8.32
2023-01-17T13:18:56.345Z,9.50
2023-01-17T13:21:30.073Z,8.90
2023-01-17T13:24:01.926Z,8.65
2023-01-17T13:26:40.104Z,8.18
2023-01-17T13:29:13.303Z,7.90
2023-01-17T13:31:58.779Z,9.13
2023-01-17T13:34:29.364Z,8.82
2023-01-17T13:36:57.801Z,9.38
2023-01-17T13:39:29.656Z,9.90
2023-01-17T13:42:15.664Z,9.60
2023-01-17T13:44:42.950Z,9.95
2023-01-17T13:47:19.188Z,9.98
2023-01-17T13:49:49.376Z,9.50
2023-01-17T13:52:19.272Z,9.60
2023-01-17T13:54:53.493Z,10.07
2023-01-17T13:57:29.334Z,10.57
2023-01-17T13:59:57.621Z,10.52
2023-01-17T14:02:33.885Z,10.02
2023-01-17T14:05:10.226Z,9.52
2023-01-17T14:07:57.591Z,9.63
2023-01-17T14:10:31.045Z,9.52
2023-01-17T14:12:58.995Z,9.55
2023-01-17T14:15:27.784Z,8.65
2023-01-17T14:17:59.995Z,7.85
2023-01-17T14:20:27.390Z,7.78
2023-01-17T14:22:59.254Z,8.15
2023-01-17T14:25:29.992Z,8.52
2023-01-17T14:28:05.161Z,8.90
2023-01-17T14:30:32.346Z,8.25
2023-01-17T14:33:00.804Z,7.47
2023-01-17T14:35:32.743Z,7.82
2023-01-17T14:38:05.377Z,7.43
2023-01-17T14:40:34.209Z,7.80
2023-01-17T14:43:03.262Z,8.10
2023-01-17T14:45:31.962Z,8.05
2023-01-17T14:48:00.331Z,7.88
2023-01-17T14:50:29.457Z,7.75
2023-01-17T14:53:08.647Z,8.00
2023-01-17T14:55:36.068Z,7.78
2023-01-17T14:58:03.215Z,9.15
2023-01-17T15:00:30.869Z,8.85
2023-01-17T15:02:59.470Z,7.95
2023-01-17T15:05:28.610Z,8.20
2023-01-17T15:07:57.202Z,7.68
2023-01-17T15:10:33.293Z,7.45
2023-01-17T15:13:06.949Z,7.15
2023-01-17T15:15:41.945Z,7.32
2023-01-17T15:18:10.388Z,6.85
2023-01-17T15:20:38.624Z,7.10
2023-01-17T15:23:06.062Z,6.22
2023-01-17T15:25:33.311Z,6.60
2023-01-17T15:28:00.582Z,7.35
2023-01-17T15:30:27.764Z,6.40
2023-01-17T15:32:54.944Z,6.07
2023-01-17T15:35:22.445Z,6.78
2023-01-17T15:37:53.892Z,6.30
2023-01-17T15:40:24.680Z,6.43
2023-01-17T15:42:53.677Z,6.35
2023-01-17T15:45:23.039Z,6.28
2023-01-17T15:47:50.248Z,6.65
2023-01-17T15:50:20.634Z,6.45
2023-01-17T15:52:49.222Z,6.68
2023-01-17T15:55:22.644Z,6.38
2023-01-17T15:57:49.915Z,6.13
2023-01-17T16:00:21.871Z,5.82
2023-01-17T16:02:57.553Z,5.72
2023-01-17T16:05:25.000Z,5.55
2023-01-17T16:07:53.505Z,5.50
2023-01-17T16:10:22.194Z,5.53
2023-01-17T16:12:54.047Z,6.72
2023-01-17T16:15:23.590Z,5.78
2023-01-17T16:17:53.209Z,6.03
2023-01-17T16:20:33.692Z,5.60
2023-01-17T16:23:01.796Z,5.55
2023-01-17T16:25:32.426Z,5.80
2023-01-17T16:28:00.093Z,5.90
2023-01-17T16:30:27.535Z,5.90
2023-01-17T16:32:56.522Z,5.47
2023-01-17T16:35:28.587Z,5.18
2023-01-17T16:37:57.481Z,4.95
2023-01-17T16:40:25.789Z,5.35
2023-01-17T16:42:52.947Z,5.28
2023-01-17T16:45:20.127Z,5.80
2023-01-17T16:47:47.960Z,5.70
2023-01-17T16:50:16.253Z,4.57
2023-01-17T16:52:43.438Z,5.25
2023-01-17T16:55:12.999Z,4.68
2023-01-17T16:57:40.175Z,4.63
2023-01-17T17:00:08.557Z,5.25
2023-01-17T17:02:36.100Z,5.60
2023-01-17T17:05:03.348Z,4.95
2023-01-17T17:07:30.671Z,4.88
2023-01-17T17:09:57.793Z,4.75
2023-01-17T17:12:24.959Z,4.97
2023-01-17T17:14:52.123Z,5.45
2023-01-17T17:17:19.283Z,4.93
2023-01-17T17:19:48.426Z,4.53
2023-01-17T17:22:15.644Z,4.47
2023-01-17T17:24:42.837Z,4.25
2023-01-17T17:27:10.221Z,4.78
2023-01-17T17:29:37.418Z,5.55
2023-01-17T17:32:06.998Z,5.15
2023-01-17T17:34:36.644Z,4.65
2023-01-17T17:37:04.017Z,4.38
2023-01-17T17:39:31.187Z,4.55
2023-01-17T17:41:58.663Z,4.43
2023-01-17T17:44:25.909Z,3.85
2023-01-17T17:46:53.393Z,4.43
2023-01-17T17:49:22.674Z,4.60
2023-01-17T17:51:50.082Z,4.47
2023-01-17T17:54:18.366Z,4.45
2023-01-17T17:56:47.376Z,4.40
2023-01-17T17:59:18.116Z,5.07
2023-01-17T18:01:45.924Z,4.55
2023-01-17T18:04:13.100Z,4.80
2023-01-17T18:06:40.601Z,4.30
2023-01-17T18:09:08.928Z,4.55
2023-01-17T18:11:36.798Z,4.88
2023-01-17T18:14:05.356Z,5.25
2023-01-17T18:16:35.560Z,4.97
2023-01-17T18:19:03.735Z,5.18
2023-01-17T18:21:35.061Z,4.80
2023-01-17T18:24:03.679Z,4.50
2023-01-17T18:26:32.558Z,5.25
2023-01-17T18:29:00.442Z,5.30
2023-01-17T18:31:28.504Z,5.00
2023-01-17T18:33:56.489Z,5.13
2023-01-17T18:36:23.943Z,4.82
2023-01-17T18:38:51.350Z,4.78
2023-01-17T18:41:25.916Z,5.47
2023-01-17T18:43:53.385Z,5.10
2023-01-17T18:46:20.964Z,4.70
2023-01-17T18:48:48.332Z,4.57
2023-01-17T18:51:16.431Z,4.75
2023-01-17T18:53:44.450Z,4.75
2023-01-17T18:56:12.861Z,4.38
2023-01-17T18:58:41.279Z,4.72
2023-01-17T19:01:10.736Z,4.60
2023-01-17T19:03:39.140Z,4.75
2023-01-17T19:06:07.129Z,5.00
2023-01-17T19:08:34.784Z,5.43
2023-01-17T19:11:04.261Z,4.10
2023-01-17T19:13:35.477Z,4.45
2023-01-17T19:16:03.583Z,4.60
2023-01-17T19:18:31.065Z,4.50
2023-01-17T19:21:05.843Z,4.85
2023-01-17T19:23:34.070Z,4.55
2023-01-17T19:26:01.205Z,5.30
2023-01-17T19:28:29.138Z,5.32
2023-01-17T19:31:03.211Z,5.65
2023-01-17T19:33:30.459Z,5.60
2023-01-17T19:36:01.172Z,5.35
2023-01-17T19:38:28.393Z,5.57
2023-01-17T19:40:55.538Z,5.72
2023-01-17T19:43:22.857Z,5.03
2023-01-17T19:45:59.916Z,5.90
2023-01-17T19:48:27.679Z,5.13
2023-01-17T19:50:55.454Z,6.20
2023-01-17T19:53:23.729Z,5.20
2023-01-17T19:55:50.854Z,5.78
2023-01-17T19:58:18.040Z,5.93
2023-01-17T20:00:46.654Z,6.28
2023-01-17T20:03:13.981Z,6.63
2023-01-17T20:05:41.147Z,6.35
2023-01-17T20:08:09.852Z,5.75
2023-01-17T20:10:37.284Z,5.88
2023-01-17T20:13:04.900Z,5.82
2023-01-17T20:15:32.117Z,5.82
2023-01-17T20:17:59.601Z,6.22
2023-01-17T20:20:26.987Z,6.07
2023-01-17T20:22:55.493Z,6.55
2023-01-17T20:25:22.623Z,6.78
2023-01-17T20:27:49.777Z,6.43
2023-01-17T20:30:20.369Z,7.00
2023-01-17T20:32:47.893Z,7.13
2023-01-17T20:35:16.034Z,8.82
2023-01-17T20:37:43.176Z,7.65
2023-01-17T20:40:12.056Z,8.02
2023-01-17T20:42:39.240Z,6.82
2023-01-17T20:45:07.533Z,7.00
2023-01-17T20:47:34.691Z,7.03
2023-01-17T20:50:05.419Z,7.20
2023-01-17T20:52:32.775Z,6.97
2023-01-17T20:55:00.256Z,7.07
2023-01-17T20:57:27.436Z,6.65
2023-01-17T20:59:54.967Z,7.53
2023-01-17T21:02:22.242Z,7.43
2023-01-17T21:04:49.729Z,7.20
2023-01-17T21:07:17.258Z,7.38
2023-01-17T21:09:44.462Z,7.32
2023-01-17T21:12:11.629Z,8.32
2023-01-17T21:14:40.583Z,6.72
2023-01-17T21:17:08.237Z,6.60
2023-01-17T21:19:36.484Z,6.88
2023-01-17T21:22:05.458Z,6.50
2023-01-17T21:24:32.636Z,6.53
2023-01-17T21:27:00.561Z,6.55
2023-01-17T21:29:29.151Z,7.50
2023-01-17T21:31:56.681Z,6.82
2023-01-17T21:34:25.440Z,7.28
2023-01-17T21:36:52.747Z,7.30
2023-01-17T21:39:20.039Z,7.65
2023-01-17T21:41:50.597Z,6.72
2023-01-17T21:44:21.993Z,7.75
2023-01-17T21:46:54.200Z,7.90
2023-01-17T21:49:22.460Z,6.82
2023-01-17T21:51:52.479Z,7.28
2023-01-17T21:54:20.161Z,7.15
2023-01-17T21:57:05.859Z,7.43
2023-01-17T21:59:32.980Z,6.95
2023-01-17T22:02:00.357Z,8.48
2023-01-17T22:04:29.495Z,7.35
2023-01-17T22:06:56.598Z,7.78
2023-01-17T22:09:23.988Z,7.22
2023-01-17T22:11:51.164Z,6.85
2023-01-17T22:14:19.806Z,6.55
2023-01-17T22:16:47.104Z,7.57
2023-01-17T22:19:14.413Z,7.28
2023-01-17T22:21:43.795Z,6.35
2023-01-17T22:24:16.650Z,6.32
2023-01-17T22:26:43.871Z,7.18
2023-01-17T22:29:11.459Z,6.63
2023-01-17T22:31:38.637Z,6.50
2023-01-17T22:34:06.176Z,6.50
2023-01-17T22:36:34.673Z,6.45
2023-01-17T22:39:02.349Z,6.32
2023-01-17T22:41:31.267Z,5.90
2023-01-17T22:43:59.204Z,5.95
2023-01-17T22:46:27.657Z,6.40
2023-01-17T22:48:55.531Z,6.18
2023-01-17T22:51:24.018Z,6.50
2023-01-17T22:53:54.466Z,6.28
2023-01-17T22:56:22.887Z,6.28
2023-01-17T22:58:50.442Z,5.55
2023-01-17T23:01:19.038Z,6.00
2023-01-17T23:03:47.152Z,5.20
2023-01-17T23:06:15.720Z,6.60
2023-01-17T23:08:44.585Z,6.20
2023-01-17T23:11:40.452Z,6.38
2023-01-17T23:14:15.523Z,5.28
2023-01-17T23:17:10.917Z,6.22
2023-01-17T23:19:39.333Z,5.95
2023-01-17T23:22:20.533Z,6.45
2023-01-17T23:24:47.757Z,5.60
2023-01-17T23:27:33.699Z,5.72
2023-01-17T23:30:00.931Z,5.70
2023-01-17T23:32:28.317Z,6.13
2023-01-17T23:34:55.496Z,6.05
2023-01-17T23:37:42.658Z,5.88
2023-01-17T23:40:10.253Z,6.18
2023-01-17T23:42:56.607Z,5.93
2023-01-17T23:45:23.937Z,6.13
2023-01-17T23:47:51.160Z,5.40
2023-01-17T23:50:18.287Z,6.20
2023-01-17T23:52:45.434Z,5.80
2023-01-17T23:55:13.607Z,5.93
2023-01-17T23:57:40.733Z,5.90
